Time;durP1;ratioP1;P1;durP2;ratioP2;P2;SDS_P1;SDS_P2;PMS_P1;PMS_P2;Temp;Humidity;BMP_temperature;BMP_pressure;BME280_temperature;BME280_humidity;BME280_pressure;Samples;Min_cycle;Max_cycle;Signal;HPM_P1;HPM_P2
2022/08/25 00:01:58;;;;;;;8.82;5.68;;;;;;;23.58;69.38;101526.97;5145857;29;20027;-79
2022/08/25 00:04:30;;;;;;;6.45;4.93;;;;;;;23.15;71.29;101530.44;5146607;29;20668;-78
2022/08/25 00:07:04;;;;;;;6.00;5.40;;;;;;;23.39;69.91;101518.19;5147476;28;20027;-78
2022/08/25 00:09:35;;;;;;;9.23;5.43;;;;;;;23.54;68.96;101517.63;5147115;28;20139;-79
2022/08/25 00:12:06;;;;;;;6.45;5.85;;;;;;;23.60;68.51;101524.97;5147877;29;20024;-79
2022/08/25 00:14:38;;;;;;;6.38;5.15;;;;;;;23.54;68.30;101512.28;5147043;29;20023;-79
2022/08/25 00:17:09;;;;;;;8.60;5.15;;;;;;;23.53;68.39;101514.09;5145962;28;20114;-78
2022/08/25 00:19:40;;;;;;;7.20;5.13;;;;;;;23.30;69.42;101525.34;5145865;29;20019;-79
2022/08/25 00:22:11;;;;;;;6.85;5.82;;;;;;;23.48;68.78;101521.75;5147489;29;20458;-79
2022/08/25 00:24:43;;;;;;;10.82;5.28;;;;;;;23.16;69.89;101518.75;5147238;29;20035;-79
2022/08/25 00:27:14;;;;;;;7.53;5.53;;;;;;;23.41;69.08;101520.72;5146550;29;20032;-79
2022/08/25 00:29:45;;;;;;;8.70;5.60;;;;;;;23.15;70.03;101526.94;5147819;29;20031;-77
2022/08/25 00:32:17;;;;;;;6.53;5.32;;;;;;;23.25;69.35;101516.16;5146776;29;20078;-78
2022/08/25 00:34:48;;;;;;;8.90;5.78;;;;;;;23.17;69.53;101509.75;5146505;28;20034;-79
2022/08/25 00:37:20;;;;;;;7.25;5.97;;;;;;;23.19;69.82;101529.16;5149641;29;20035;-79
2022/08/25 00:39:51;;;;;;;8.27;5.63;;;;;;;23.07;70.30;101520.53;5151697;29;20585;-80
2022/08/25 00:42:24;;;;;;;8.13;6.10;;;;;;;22.68;72.68;101529.84;5150123;29;20051;-79
2022/08/25 00:44:57;;;;;;;7.50;5.97;;;;;;;22.78;72.59;101520.91;5155212;28;20027;-79
2022/08/25 00:47:29;;;;;;;6.22;5.32;;;;;;;22.98;70.98;101528.69;5151341;29;20027;-79
2022/08/25 00:50:06;;;;;;;8.80;6.25;;;;;;;22.81;72.59;101520.59;5148152;29;20019;-79
2022/08/25 00:52:46;;;;;;;9.35;6.50;;;;;;;22.55;74.26;101510.69;5150562;29;20085;-79
2022/08/25 00:55:26;;;;;;;7.50;6.20;;;;;;;22.53;73.55;101513.53;5149143;29;20140;-79
2022/08/25 00:58:12;;;;;;;12.93;6.50;;;;;;;22.70;73.17;101524.34;5150125;29;20037;-79
2022/08/25 01:00:48;;;;;;;10.32;6.57;;;;;;;22.62;73.62;101527.78;5149744;28;20038;-80
2022/08/25 01:03:20;;;;;;;9.02;6.88;;;;;;;22.40;74.42;101516.56;5149131;28;20106;-79
2022/08/25 01:05:53;;;;;;;8.25;6.85;;;;;;;22.38;74.14;101513.22;5150311;28;20702;-79
2022/08/25 01:08:28;;;;;;;7.47;6.78;;;;;;;22.52;73.85;101527.00;5149869;28;20062;-79
2022/08/25 01:11:03;;;;;;;7.32;6.60;;;;;;;22.36;73.89;101505.38;5149117;29;20131;-78
2022/08/25 01:13:44;;;;;;;9.90;6.80;;;;;;;22.54;73.46;101523.19;5148182;29;20030;-79
2022/08/25 01:16:15;;;;;;;8.65;6.65;;;;;;;22.53;72.82;101508.19;5150188;28;20114;-78
2022/08/25 01:18:51;;;;;;;10.98;6.80;;;;;;;22.26;74.52;101514.44;5149066;29;20126;-79
2022/08/25 01:21:25;;;;;;;9.60;7.20;;;;;;;22.05;75.81;101520.94;5149835;29;20643;-79
2022/08/25 01:23:58;;;;;;;10.45;6.80;;;;;;;22.30;74.21;101518.50;5149766;28;20034;-79
2022/08/25 01:26:32;;;;;;;10.80;6.85;;;;;;;22.18;74.29;101516.06;5149475;29;20035;-79
2022/08/25 01:29:20;;;;;;;8.43;6.82;;;;;;;22.00;75.05;101518.72;5148946;29;20050;-79
2022/08/25 01:32:00;;;;;;;9.27;6.20;;;;;;;21.94;76.44;101517.50;5149756;28;20030;-79
2022/08/25 01:34:34;;;;;;;7.25;6.55;;;;;;;21.91;76.04;101514.28;5148529;28;20565;-79
2022/08/25 01:37:07;;;;;;;10.18;6.95;;;;;;;22.04;74.20;101516.59;5149643;28;20031;-79
2022/08/25 01:39:39;;;;;;;8.70;6.90;;;;;;;21.86;75.18;101517.41;5148947;28;20039;-78
2022/08/25 01:42:19;;;;;;;7.38;6.63;;;;;;;21.71;76.31;101517.88;5149692;29;20035;-79
2022/08/25 01:44:50;;;;;;;7.82;6.43;;;;;;;21.88;75.00;101512.78;5150281;28;20093;-81
2022/08/25 01:47:23;;;;;;;9.30;6.90;;;;;;;21.87;74.17;101511.94;5150185;28;20719;-79
2022/08/25 01:49:54;;;;;;;7.20;6.40;;;;;;;21.67;75.09;101505.88;5148761;28;20039;-79
2022/08/25 01:52:35;;;;;;;10.63;7.00;;;;;;;21.74;74.26;101488.28;5149373;29;20038;-80
2022/08/25 01:55:07;;;;;;;8.07;6.28;;;;;;;21.67;75.24;101513.88;5149591;28;20098;-80
2022/08/25 01:57:38;;;;;;;7.25;6.53;;;;;;;21.61;75.20;101509.97;5149810;29;20043;-79
2022/08/25 02:00:12;;;;;;;9.80;6.53;;;;;;;21.45;76.44;101520.44;5149936;29;20039;-79
2022/08/25 02:02:44;;;;;;;8.77;6.80;;;;;;;21.28;76.79;101509.56;5147866;28;20046;-79
2022/08/25 02:05:15;;;;;;;9.85;6.90;;;;;;;21.62;75.34;101513.47;5149504;29;20031;-80
2022/08/25 02:07:46;;;;;;;11.52;7.07;;;;;;;21.42;75.65;101510.91;5149078;29;20035;-80
2022/08/25 02:10:18;;;;;;;10.60;6.82;;;;;;;21.62;74.25;101516.13;5148296;28;20051;-80
2022/08/25 02:12:49;;;;;;;7.88;7.00;;;;;;;21.54;73.92;101494.72;5149144;29;20127;-80
2022/08/25 02:15:21;;;;;;;9.05;6.80;;;;;;;21.69;73.62;101516.38;5149388;29;20023;-80
2022/08/25 02:17:52;;;;;;;10.93;6.50;;;;;;;21.62;73.91;101505.47;5148338;29;20032;-80
2022/08/25 02:20:25;;;;;;;8.35;6.53;;;;;;;21.49;74.00;101504.00;5149047;29;20035;-80
2022/08/25 02:22:56;;;;;;;9.93;6.63;;;;;;;21.33;73.89;101488.66;5149468;28;20025;-80
2022/08/25 02:25:27;;;;;;;14.25;7.15;;;;;;;21.31;74.55;101503.94;5148503;29;20023;-80
2022/08/25 02:27:59;;;;;;;11.50;6.80;;;;;;;21.41;74.11;101511.91;5149361;29;20031;-80
2022/08/25 02:30:31;;;;;;;8.60;7.07;;;;;;;21.51;73.02;101504.69;5148566;29;20019;-80
2022/08/25 02:33:03;;;;;;;8.55;6.50;;;;;;;21.48;72.92;101499.66;5148742;29;20034;-80
2022/08/25 02:35:35;;;;;;;8.67;6.20;;;;;;;21.46;72.94;101506.13;5148804;29;20449;-80
2022/08/25 02:38:06;;;;;;;9.32;6.63;;;;;;;21.31;73.13;101498.59;5148953;29;20050;-80
2022/08/25 02:40:37;;;;;;;7.50;6.53;;;;;;;21.45;72.50;101504.44;5148690;29;20027;-80
2022/08/25 02:43:09;;;;;;;10.90;6.30;;;;;;;21.36;71.46;101485.72;5148262;28;20046;-80
2022/08/25 02:45:40;;;;;;;9.03;6.30;;;;;;;21.37;71.27;101498.03;5148423;29;20638;-80
2022/08/25 02:48:11;;;;;;;10.63;6.55;;;;;;;21.06;72.27;101492.13;5147261;29;20062;-80
2022/08/25 02:50:47;;;;;;;9.52;6.78;;;;;;;21.47;71.26;101508.63;5148178;29;20034;-81
2022/08/25 02:53:19;;;;;;;10.87;6.00;;;;;;;21.28;71.26;101494.44;5148318;29;20032;-81
2022/08/25 02:55:50;;;;;;;8.70;6.10;;;;;;;21.30;70.52;101496.09;5148055;28;20487;-80
2022/08/25 02:58:22;;;;;;;11.10;7.97;;;;;;;21.21;71.04;101495.16;5147530;28;20037;-80
2022/08/25 03:00:55;;;;;;;7.07;6.37;;;;;;;21.12;71.17;101497.72;5147981;28;20028;-80
2022/08/25 03:03:26;;;;;;;9.50;7.13;;;;;;;21.13;70.93;101493.22;5147479;29;20074;-80
2022/08/25 03:05:59;;;;;;;8.40;6.47;;;;;;;21.14;70.15;101487.75;5147416;29;20518;-80
2022/08/25 03:08:30;;;;;;;10.80;6.60;;;;;;;21.23;69.73;101490.50;5148402;28;20071;-80
2022/08/25 03:11:02;;;;;;;8.40;6.13;;;;;;;21.21;69.35;101477.34;5147855;29;20525;-80
2022/08/25 03:13:34;;;;;;;13.18;6.80;;;;;;;21.17;69.29;101491.13;5147874;29;20391;-80
2022/08/25 03:16:06;;;;;;;8.40;6.30;;;;;;;21.25;68.72;101493.88;5148495;29;20039;-80
2022/08/25 03:18:40;;;;;;;8.75;6.45;;;;;;;21.25;68.65;101484.06;5145194;29;20387;-80
2022/08/25 03:21:13;;;;;;;9.57;5.80;;;;;;;21.23;68.96;101474.53;5147151;29;20038;-80
2022/08/25 03:23:44;;;;;;;9.23;6.10;;;;;;;21.05;69.54;101477.97;5147368;29;20054;-80
2022/08/25 03:29:05;;;;;;;9.87;6.57;;;;;;;21.02;68.81;101452.50;5147918;29;20074;-80
2022/08/25 03:31:37;;;;;;;14.27;6.53;;;;;;;20.92;68.45;101456.97;5147275;28;20486;-79
2022/08/25 03:34:16;;;;;;;13.03;6.60;;;;;;;21.01;67.47;101460.63;5146999;29;20042;-80
2022/08/25 03:36:50;;;;;;;13.97;7.30;;;;;;;21.06;66.89;101476.16;5147660;29;20471;-80
2022/08/25 03:39:24;;;;;;;11.23;6.93;;;;;;;21.00;66.85;101461.59;5147396;28;20828;-80
2022/08/25 03:41:55;;;;;;;8.18;6.63;;;;;;;20.83;66.58;101452.53;5147436;29;20114;-80
2022/08/25 03:44:26;;;;;;;7.53;6.60;;;;;;;20.88;66.44;101464.41;5147370;29;20102;-80
2022/08/25 03:46:57;;;;;;;12.20;7.33;;;;;;;20.86;65.74;101447.75;5147680;29;20655;-80
2022/08/25 03:49:30;;;;;;;13.23;7.80;;;;;;;20.76;65.98;101465.56;5146637;29;20083;-80
2022/08/25 03:52:02;;;;;;;12.07;7.37;;;;;;;20.78;65.47;101456.47;5147523;29;20027;-80
2022/08/25 03:54:33;;;;;;;13.73;7.50;;;;;;;20.78;65.32;101456.47;5147551;29;20761;-80
2022/08/25 03:57:05;;;;;;;11.53;6.97;;;;;;;20.87;64.16;101440.59;5145962;29;20071;-80
2022/08/25 03:59:39;;;;;;;16.27;6.93;;;;;;;20.91;63.96;101456.13;5147268;29;20027;-80
2022/08/25 04:02:10;;;;;;;14.80;6.97;;;;;;;20.77;64.30;101451.28;5147572;28;20041;-80
2022/08/25 04:04:41;;;;;;;13.27;6.47;;;;;;;20.72;63.93;101441.06;5146521;29;20468;-79
2022/08/25 04:07:13;;;;;;;14.80;7.57;;;;;;;20.62;63.99;101433.13;5146952;29;20039;-80
2022/08/25 04:09:44;;;;;;;14.90;6.07;;;;;;;20.89;63.64;101438.66;5147551;28;20047;-80
2022/08/25 04:12:16;;;;;;;13.33;6.70;;;;;;;20.68;64.77;101439.69;5155540;29;20042;-80
2022/08/25 04:14:47;;;;;;;15.33;7.93;;;;;;;20.58;64.54;101422.91;5151802;29;20526;-81
2022/08/25 04:17:19;;;;;;;10.13;6.80;;;;;;;20.59;64.21;101421.94;5150718;29;20454;-80
2022/08/25 04:19:50;;;;;;;10.70;6.97;;;;;;;20.76;63.64;101447.78;5154413;29;20035;-80
2022/08/25 04:22:21;;;;;;;11.87;7.23;;;;;;;20.61;64.57;101447.41;5150836;29;20031;-80
2022/08/25 04:24:53;;;;;;;13.87;7.30;;;;;;;20.61;64.53;101447.41;5151400;29;20081;-79
2022/08/25 04:27:24;;;;;;;14.07;6.90;;;;;;;20.55;64.18;101448.81;5151008;29;20091;-80
2022/08/25 04:29:55;;;;;;;14.77;6.63;;;;;;;20.52;64.18;101438.47;5151315;29;20031;-80
2022/08/25 04:32:27;;;;;;;10.70;6.77;;;;;;;20.57;63.81;101448.69;5149272;28;20074;-80
2022/08/25 04:34:58;;;;;;;13.23;7.30;;;;;;;20.48;64.52;101444.22;5151478;28;20019;-80
2022/08/25 04:37:30;;;;;;;9.97;6.70;;;;;;;20.38;63.79;101413.16;5150425;28;20038;-80
2022/08/25 04:40:01;;;;;;;13.30;6.60;;;;;;;20.41;63.97;101436.81;5153859;29;20031;-81
2022/08/25 04:42:33;;;;;;;16.33;6.23;;;;;;;20.41;63.65;101433.31;5151301;28;20422;-80
2022/08/25 04:45:05;;;;;;;20.90;6.97;;;;;;;20.52;63.31;101422.50;5149764;29;20034;-80
2022/08/25 04:47:37;;;;;;;13.00;6.27;;;;;;;20.55;62.56;101413.38;5149803;28;20459;-80
2022/08/25 04:50:09;;;;;;;14.50;5.90;;;;;;;20.38;63.01;101430.94;5165405;28;20046;-79
2022/08/25 04:52:41;;;;;;;9.33;5.70;;;;;;;20.29;63.85;101422.84;5165382;28;20035;-80
2022/08/25 04:55:12;;;;;;;13.17;5.87;;;;;;;20.38;64.16;101428.28;5150380;29;20032;-81
2022/08/25 04:57:43;;;;;;;13.20;5.43;;;;;;;20.46;62.77;101424.88;5150085;29;20073;-81
2022/08/25 05:00:15;;;;;;;11.07;6.23;;;;;;;20.45;62.37;101428.53;5149884;29;20042;-81
2022/08/25 05:02:46;;;;;;;10.27;6.37;;;;;;;20.31;63.40;101428.84;5149566;29;20031;-81
2022/08/25 05:05:18;;;;;;;9.67;4.80;;;;;;;20.13;63.65;101404.78;5150563;29;20034;-81
2022/08/25 05:07:49;;;;;;;15.07;5.07;;;;;;;20.48;62.52;101426.44;5150230;29;20019;-80
2022/08/25 05:10:21;;;;;;;10.27;4.93;;;;;;;20.29;62.93;101420.19;5149787;29;20070;-80
2022/08/25 05:12:52;;;;;;;11.20;5.10;;;;;;;20.42;62.65;101442.97;5150254;29;20103;-80
2022/08/25 05:18:16;;;;;;;9.97;4.80;;;;;;;20.36;62.23;101443.53;5148241;29;20055;-79
2022/08/25 05:20:49;;;;;;;8.93;4.53;;;;;;;20.42;61.59;101446.47;5150277;28;20496;-79
2022/08/25 05:23:22;;;;;;;9.33;4.30;;;;;;;20.40;61.19;101451.06;5148815;28;20039;-79
2022/08/25 05:25:54;;;;;;;6.17;4.10;;;;;;;20.43;61.18;101448.16;5149917;28;20638;-80
2022/08/25 05:28:25;;;;;;;9.70;4.43;;;;;;;20.71;60.26;101455.38;5148147;28;20078;-79
2022/08/25 05:30:58;;;;;;;9.90;4.40;;;;;;;20.61;59.46;101443.91;5149726;29;20545;-80
2022/08/25 05:33:30;;;;;;;8.13;4.28;;;;;;;20.64;59.96;101463.09;5148643;29;20071;-80
2022/08/25 05:36:02;;;;;;;10.60;4.40;;;;;;;20.51;60.12;101433.31;5149771;28;20061;-80
2022/08/25 05:38:33;;;;;;;12.17;4.57;;;;;;;20.82;60.61;101466.81;5149890;29;20023;-80
2022/08/25 05:41:11;;;;;;;10.53;4.50;;;;;;;20.80;58.74;101456.31;5149729;29;20034;-79
2022/08/25 05:43:45;;;;;;;7.03;4.43;;;;;;;20.78;58.76;101451.16;5149324;28;20035;-79
2022/08/25 05:46:18;;;;;;;10.85;3.70;;;;;;;20.86;58.76;101463.72;5149003;29;20118;-80
2022/08/25 05:48:50;;;;;;;11.48;4.28;;;;;;;20.96;57.87;101463.75;5149222;29;20038;-80
2022/08/25 05:51:21;;;;;;;10.20;3.93;;;;;;;21.01;57.62;101464.13;5149234;28;20333;-80
2022/08/25 05:53:52;;;;;;;5.93;4.20;;;;;;;20.87;57.60;101454.78;5149630;29;20031;-80
2022/08/25 05:56:24;;;;;;;10.90;3.90;;;;;;;20.96;57.42;101458.41;5149069;29;20691;-80
2022/08/25 05:58:55;;;;;;;13.43;4.05;;;;;;;21.09;57.51;101465.19;5147892;29;20444;-79
2022/08/25 06:04:19;;;;;;;15.57;4.43;;;;;;;21.02;56.60;101454.31;5148941;29;20594;-82
2022/08/25 06:06:52;;;;;;;8.73;3.60;;;;;;;21.23;56.63;101472.72;5149061;28;20257;-83
2022/08/25 06:09:24;;;;;;;10.85;3.90;;;;;;;21.23;56.76;101478.03;5152161;28;20036;-83
2022/08/25 06:11:55;;;;;;;6.47;3.47;;;;;;;21.25;55.95;101468.09;5148633;28;20025;-85
2022/08/25 06:14:26;;;;;;;10.13;3.60;;;;;;;21.31;56.14;101474.63;5148690;28;20037;-80
2022/08/25 06:16:59;;;;;;;13.40;3.70;;;;;;;21.40;55.93;101472.91;5148512;28;20032;-81
2022/08/25 06:19:30;;;;;;;13.77;4.47;;;;;;;21.35;55.44;101464.50;5145454;28;20349;-82
2022/08/25 06:22:01;;;;;;;7.50;3.67;;;;;;;21.34;55.13;101455.72;5135698;28;20031;-78
2022/08/25 06:24:33;;;;;;;9.48;3.80;;;;;;;21.45;54.82;101457.31;5132066;28;20511;-82
2022/08/25 06:27:04;;;;;;;6.32;3.67;;;;;;;21.53;55.40;101467.22;5133772;28;20725;-82
2022/08/25 06:29:35;;;;;;;10.67;3.70;;;;;;;21.40;56.12;101449.78;5143380;28;20035;-82
2022/08/25 06:32:07;;;;;;;9.67;4.50;;;;;;;21.56;55.47;101469.59;5145741;28;20086;-82
2022/08/25 06:34:38;;;;;;;13.60;4.47;;;;;;;21.51;55.37;101456.72;5145109;28;20027;-82
2022/08/25 06:37:10;;;;;;;12.60;3.93;;;;;;;21.66;54.40;101468.72;5150940;28;20031;-81
2022/08/25 06:39:41;;;;;;;9.55;4.05;;;;;;;21.69;53.89;101466.59;5146579;28;20086;-82
2022/08/25 06:42:13;;;;;;;9.95;4.32;;;;;;;21.67;53.99;101457.88;5147417;28;20030;-82
2022/08/25 06:44:44;;;;;;;15.43;3.97;;;;;;;21.78;54.28;101464.00;5150595;28;20031;-82
2022/08/25 06:47:16;;;;;;;14.57;4.15;;;;;;;21.87;53.44;101471.13;5159969;28;20844;-82
2022/08/25 06:49:47;;;;;;;7.97;4.25;;;;;;;21.94;53.97;101472.16;5147868;28;20474;-82
2022/08/25 06:52:19;;;;;;;8.05;4.47;;;;;;;21.96;54.16;101470.19;5147679;28;20179;-82
2022/08/25 06:54:51;;;;;;;9.57;3.55;;;;;;;22.03;54.08;101477.59;5147779;28;20035;-82
2022/08/25 06:57:23;;;;;;;8.32;4.07;;;;;;;22.04;54.21;101465.94;5155388;28;20473;-82
2022/08/25 06:59:54;;;;;;;10.52;4.07;;;;;;;22.19;53.73;101464.38;5147784;28;20078;-83
2022/08/25 07:02:26;;;;;;;9.05;4.20;;;;;;;22.27;53.35;101457.44;5146606;28;20540;-83
2022/08/25 07:04:57;;;;;;;9.55;3.83;;;;;;;22.32;52.31;101457.81;5147928;28;20500;-82
2022/08/25 07:07:28;;;;;;;11.13;3.78;;;;;;;22.40;52.54;101455.22;5143588;28;20031;-82
2022/08/25 07:09:59;;;;;;;9.75;3.55;;;;;;;22.46;52.22;101454.56;5155107;28;20063;-81
2022/08/25 07:12:31;;;;;;;19.08;5.15;;;;;;;22.63;52.07;101449.38;5145664;28;20035;-82
2022/08/25 07:15:03;;;;;;;15.05;4.57;;;;;;;22.63;51.32;101440.53;5145856;28;20031;-81
2022/08/25 07:17:34;;;;;;;7.75;3.95;;;;;;;22.79;51.38;101445.13;5153152;28;20040;-89
2022/08/25 07:20:06;;;;;;;7.55;3.97;;;;;;;22.86;51.43;101438.16;5146247;28;20027;-92
2022/08/25 07:22:37;;;;;;;14.77;5.03;;;;;;;22.96;51.53;101441.56;5148443;28;20042;-85
2022/08/25 07:25:10;;;;;;;7.25;3.33;;;;;;;23.06;52.00;101437.91;5147866;28;20110;-89
2022/08/25 07:27:42;;;;;;;14.90;3.65;;;;;;;23.34;50.33;101464.38;5156535;28;20023;-83
2022/08/25 07:30:15;;;;;;;8.45;3.40;;;;;;;23.48;49.79;101451.41;5147917;28;20027;-81
2022/08/25 07:32:46;;;;;;;9.55;3.03;;;;;;;23.82;49.34;101450.50;5145561;28;20035;-86
2022/08/25 07:35:19;;;;;;;8.80;3.33;;;;;;;24.05;48.63;101450.66;5146093;28;20031;-82
2022/08/25 07:37:55;;;;;;;9.55;3.88;;;;;;;24.36;48.52;101446.50;5144025;28;20384;-85
2022/08/25 07:40:36;;;;;;;9.90;3.08;;;;;;;24.58;46.94;101454.81;5146857;28;20701;-75
2022/08/25 07:43:08;;;;;;;13.80;3.67;;;;;;;24.89;46.51;101450.53;5145255;28;20035;-85
2022/08/25 07:45:39;;;;;;;14.20;3.53;;;;;;;25.49;45.66;101444.75;5160332;28;20030;-84
2022/08/25 07:48:11;;;;;;;12.73;3.45;;;;;;;25.79;44.66;101450.31;5158912;28;20390;-85
2022/08/25 07:50:44;;;;;;;7.88;3.30;;;;;;;26.77;44.63;101448.75;5133699;29;20122;-86
2022/08/25 07:53:16;;;;;;;10.68;3.35;;;;;;;26.90;44.23;101453.44;5150394;28;20033;-82
2022/08/25 07:55:47;;;;;;;8.45;2.97;;;;;;;26.49;44.89;101430.59;5148269;28;20032;-83
2022/08/25 07:58:18;;;;;;;6.68;2.67;;;;;;;26.67;44.15;101442.81;5150060;28;20134;-81
2022/08/25 08:00:52;;;;;;;11.25;3.28;;;;;;;26.46;44.49;101433.66;5151538;29;20135;-81
2022/08/25 08:03:23;;;;;;;10.15;3.30;;;;;;;26.41;44.23;101439.56;5149168;28;20011;-81
2022/08/25 08:05:55;;;;;;;6.07;3.10;;;;;;;26.32;43.59;101436.06;5149358;28;20085;-81
2022/08/25 08:08:27;;;;;;;9.13;3.00;;;;;;;26.31;44.58;101445.16;5150129;28;20047;-80
2022/08/25 08:10:59;;;;;;;7.30;2.20;;;;;;;26.25;44.22;101434.31;5149012;28;20039;-81
2022/08/25 08:13:32;;;;;;;7.65;2.80;;;;;;;26.29;43.97;101430.25;5149265;28;20027;-81
2022/08/25 08:16:08;;;;;;;9.90;2.70;;;;;;;26.29;43.81;101439.13;5148242;28;20591;-80
2022/08/25 08:18:43;;;;;;;9.38;3.25;;;;;;;26.49;44.22;101438.66;5149081;28;20407;-81
2022/08/25 08:21:21;;;;;;;9.55;2.85;;;;;;;26.44;45.23;101427.63;5150383;28;20034;-81
2022/08/25 08:23:55;;;;;;;7.32;2.65;;;;;;;26.70;44.24;101437.06;5150886;28;20493;-81
2022/08/25 08:26:27;;;;;;;;;;;;;;;26.65;44.68;101440.28;5152730;28;20034;-80
2022/08/25 08:28:58;;;;;;;11.75;2.92;;;;;;;26.62;44.90;101448.72;5150171;28;19918;-80
2022/08/25 08:31:30;;;;;;;8.77;3.08;;;;;;;26.78;44.44;101442.34;5150026;28;20042;-80
2022/08/25 08:34:01;;;;;;;11.65;2.65;;;;;;;26.67;43.91;101437.44;5149288;28;20062;-80
2022/08/25 08:36:33;;;;;;;8.55;3.30;;;;;;;26.64;44.24;101421.69;5152875;28;20515;-80
2022/08/25 08:39:04;;;;;;;10.93;2.55;;;;;;;26.88;43.40;101423.25;5154435;28;20553;-80
2022/08/25 08:44:52;;;;;;;11.57;3.15;;;;;;;27.04;43.43;101427.59;5149489;29;20039;-80
2022/08/25 08:48:01;;;;;;;14.05;3.85;;;;;;;26.99;43.54;101431.84;5156384;28;20042;-81
2022/08/25 08:51:01;;;;;;;6.75;2.63;;;;;;;27.02;44.10;101435.00;5149553;28;20038;-81
2022/08/25 08:53:45;;;;;;;7.72;2.90;;;;;;;27.25;42.37;101430.53;5149229;29;20046;-81
2022/08/25 08:56:21;;;;;;;;;;;;;;;27.21;44.00;101432.78;5146323;28;20031;-80
2022/08/25 08:59:04;;;;;;;9.68;2.85;;;;;;;27.49;42.68;101426.63;5149821;28;19922;-80
2022/08/25 09:01:46;;;;;;;6.45;2.53;;;;;;;27.68;41.95;101427.03;5148596;28;20041;-80
2022/08/25 09:04:28;;;;;;;7.57;2.72;;;;;;;27.65;41.61;101425.56;5148282;28;20038;-80
2022/08/25 09:07:03;;;;;;;7.28;2.58;;;;;;;27.94;41.59;101425.66;5147091;28;20019;-80
2022/08/25 09:09:34;;;;;;;16.10;2.63;;;;;;;27.97;40.87;101425.25;5146909;29;20402;-81
2022/08/25 09:12:15;;;;;;;11.40;2.42;;;;;;;28.19;41.01;101435.97;5149498;28;20035;-81
2022/08/25 09:14:58;;;;;;;13.10;3.05;;;;;;;28.17;41.37;101434.50;5147274;28;20549;-79
2022/08/25 09:17:33;;;;;;;11.70;3.13;;;;;;;28.15;40.04;101432.00;5148448;28;20053;-80
2022/08/25 09:20:28;;;;;;;9.35;3.25;;;;;;;28.41;40.13;101435.09;5149410;28;20039;-81
2022/08/25 09:23:29;;;;;;;11.27;3.33;;;;;;;28.29;40.61;101432.94;5149454;28;20085;-80
2022/08/25 09:26:26;;;;;;;5.70;2.72;;;;;;;28.37;39.11;101430.13;5133307;28;20039;-79
2022/08/25 09:29:11;;;;;;;10.65;2.50;;;;;;;28.63;38.97;101427.75;5163665;28;20094;-80
2022/08/25 09:31:43;;;;;;;7.22;2.15;;;;;;;28.54;37.81;101424.41;5147475;28;20041;-80
2022/08/25 09:34:21;;;;;;;13.93;2.45;;;;;;;28.59;37.92;101432.72;5149256;28;20034;-81
2022/08/25 09:36:52;;;;;;;9.30;2.42;;;;;;;28.71;36.88;101432.97;5146453;28;20070;-79
2022/08/25 09:39:23;;;;;;;8.45;2.58;;;;;;;28.88;36.77;101421.88;5162946;28;20031;-81
2022/08/25 09:41:57;;;;;;;9.35;2.63;;;;;;;29.03;36.99;101412.84;5152219;28;20030;-82
2022/08/25 09:44:33;;;;;;;;;;;;;;;28.94;37.82;101429.16;5157668;28;20117;-81
2022/08/25 09:47:16;;;;;;;6.82;2.13;;;;;;;28.82;36.63;101419.97;5157433;28;19914;-81
2022/08/25 09:49:55;;;;;;;4.68;2.20;;;;;;;29.26;35.75;101415.19;5161040;28;20521;-81
2022/08/25 09:52:34;;;;;;;6.78;2.20;;;;;;;29.02;36.94;101413.88;5148166;28;20028;-82
2022/08/25 09:55:05;;;;;;;9.73;2.25;;;;;;;29.39;35.08;101402.75;5149650;29;20643;-81
2022/08/25 09:57:42;;;;;;;5.60;2.10;;;;;;;29.76;33.60;101405.91;5144351;28;20529;-81
2022/08/25 10:00:21;;;;;;;5.88;2.15;;;;;;;29.92;33.90;101401.13;5149212;28;20069;-77
2022/08/25 10:03:19;;;;;;;5.35;2.00;;;;;;;29.98;33.78;101396.78;5148285;28;20019;-82
2022/08/25 10:05:53;;;;;;;6.50;2.25;;;;;;;30.02;34.48;101389.94;5145203;28;20625;-82
2022/08/25 10:08:31;;;;;;;4.70;1.95;;;;;;;29.94;32.80;101386.41;5164057;28;20030;-82
2022/08/25 10:11:13;;;;;;;6.90;1.88;;;;;;;30.22;32.22;101381.81;5153642;28;20129;-81
2022/08/25 10:13:48;;;;;;;3.95;1.80;;;;;;;30.81;32.95;101383.66;5133217;29;20023;-83
2022/08/25 10:16:25;;;;;;;8.75;2.33;;;;;;;30.57;31.47;101379.81;5149259;28;20070;-76
2022/08/25 10:19:05;;;;;;;4.47;2.20;;;;;;;30.44;30.84;101376.16;5168466;28;20031;-82
2022/08/25 10:21:39;;;;;;;6.35;2.10;;;;;;;30.89;30.82;101378.06;5147638;28;20026;-81
2022/08/25 10:24:18;;;;;;;13.05;2.30;;;;;;;30.84;31.11;101374.34;5149144;28;20506;-79
2022/08/25 10:27:13;;;;;;;6.72;1.70;;;;;;;30.73;32.14;101365.84;5145350;28;20487;-81
2022/08/25 10:30:01;;;;;;;7.75;1.65;;;;;;;30.95;31.23;101359.31;5157498;28;20435;-79
2022/08/25 10:32:39;;;;;;;5.13;1.80;;;;;;;31.23;30.53;101369.75;5138160;29;20054;-79
2022/08/25 10:35:25;;;;;;;17.92;3.25;;;;;;;30.78;31.87;101354.38;5148389;28;20038;-79
2022/08/25 10:38:31;;;;;;;8.07;2.17;;;;;;;30.79;32.54;101351.44;5145045;28;20035;-80
2022/08/25 10:41:40;;;;;;;6.93;2.33;;;;;;;30.84;32.55;101352.72;5142789;28;20170;-79
2022/08/25 10:47:32;;;;;;;5.20;1.73;;;;;;;30.85;31.92;101349.78;5142547;28;20031;-77
2022/08/25 10:50:22;;;;;;;4.53;1.88;;;;;;;30.74;31.80;101342.34;5147705;28;20027;-77
2022/08/25 10:53:05;;;;;;;7.65;2.25;;;;;;;30.87;32.69;101336.91;5146446;28;20499;-77
2022/08/25 10:55:48;;;;;;;8.80;2.30;;;;;;;31.07;34.11;101327.00;5145668;28;20886;-82
2022/08/25 10:58:30;;;;;;;7.00;2.47;;;;;;;31.29;33.62;101327.47;5144907;28;20031;-78
2022/08/25 11:01:28;;;;;;;6.13;2.33;;;;;;;31.54;34.17;101332.06;5147469;28;20098;-78
2022/08/25 11:04:06;;;;;;;6.40;2.60;;;;;;;31.72;31.85;101327.72;5136156;28;20522;-79
2022/08/25 11:06:49;;;;;;;11.75;2.47;;;;;;;31.62;33.15;101330.97;5142003;28;20035;-77
2022/08/25 11:09:27;;;;;;;7.40;2.97;;;;;;;31.77;31.72;101325.19;5157978;28;20644;-78
2022/08/25 11:12:04;;;;;;;9.15;2.28;;;;;;;32.07;31.29;101326.38;5147148;28;20035;-77
2022/08/25 11:14:38;;;;;;;8.13;1.85;;;;;;;32.23;30.43;101333.06;5147039;28;20397;-77
2022/08/25 11:17:18;;;;;;;6.53;2.45;;;;;;;32.27;30.96;101319.91;5145497;28;20464;-76
2022/08/25 11:19:55;;;;;;;5.97;2.20;;;;;;;32.07;30.46;101321.78;5137702;28;20039;-75
2022/08/25 11:22:34;;;;;;;11.40;2.03;;;;;;;32.36;30.40;101318.53;5150790;28;20481;-76
2022/08/25 11:25:28;;;;;;;5.60;2.25;;;;;;;32.69;30.22;101311.84;5152745;28;20082;-75
2022/08/25 11:28:09;;;;;;;5.68;2.33;;;;;;;32.60;29.42;101310.53;5145080;28;20379;-77
2022/08/25 11:30:40;;;;;;;7.15;1.98;;;;;;;32.67;29.45;101310.44;5146290;28;20118;-77
2022/08/25 11:33:15;;;;;;;6.85;2.30;;;;;;;32.55;29.63;101302.28;5145371;28;20024;-76
2022/08/25 11:35:55;;;;;;;7.65;2.70;;;;;;;32.73;29.40;101304.09;5146566;28;20034;-76
2022/08/25 11:38:45;;;;;;;9.70;2.33;;;;;;;32.90;29.79;101306.16;5157155;28;20790;-76
2022/08/25 11:41:21;;;;;;;8.57;2.00;;;;;;;32.75;28.79;101299.25;5142581;28;20479;-74
2022/08/25 11:44:15;;;;;;;4.28;1.80;;;;;;;32.95;29.59;101290.00;5147439;29;20035;-80
2022/08/25 11:46:58;;;;;;;9.65;2.28;;;;;;;33.10;29.74;101305.88;5144123;28;20467;-80
2022/08/25 11:49:32;;;;;;;6.65;2.30;;;;;;;33.20;28.59;101294.41;5144803;28;20091;-80
2022/08/25 11:52:32;;;;;;;5.95;1.85;;;;;;;33.06;28.62;101302.75;5147658;28;20039;-79
2022/08/25 11:55:20;;;;;;;8.75;1.80;;;;;;;33.02;27.86;101304.31;5147431;28;20486;-78
2022/08/25 11:58:26;;;;;;;10.15;2.05;;;;;;;33.27;28.76;101289.72;5142904;28;20447;-82
2022/08/25 12:01:01;;;;;;;9.80;2.60;;;;;;;33.20;28.72;101289.84;5147612;28;20193;-80
2022/08/25 12:03:35;;;;;;;7.80;2.25;;;;;;;33.49;27.74;101291.88;5145940;28;20023;-83
2022/08/25 12:06:21;;;;;;;9.45;2.58;;;;;;;33.26;28.37;101292.66;5144684;28;20054;-83
2022/08/25 12:08:53;;;;;;;5.75;2.45;;;;;;;33.60;27.51;101292.91;5148080;28;20051;-84
2022/08/25 12:11:47;;;;;;;15.50;2.30;;;;;;;33.44;28.01;101289.84;5147774;28;20439;-84
2022/08/25 12:14:21;;;;;;;5.32;2.10;;;;;;;33.49;28.12;101291.88;5146655;28;20035;-84